Time;durP1;ratioP1;P1;durP2;ratioP2;P2;SDS_P1;SDS_P2;PMS_P1;PMS_P2;Temp;Humidity;BMP_temperature;BMP_pressure;BME280_temperature;BME280_humidity;BME280_pressure;Samples;Min_cycle;Max_cycle;Signal;HPM_P1;HPM_P2
2022/04/26 03:36:06;;;;;;;25.10;19.40;;;;;;;8.86;100.00;101167.03;5355907;27;20069;-62
2022/04/26 03:37:20;;;;;;;9.82;5.85;;;;;;;6.73;100.00;101402.38;5354748;27;20043;-63
2022/04/26 03:39:51;;;;;;;9.20;5.85;;;;;;;6.70;100.00;101396.38;5349710;27;20349;-63
2022/04/26 03:42:22;;;;;;;12.60;5.70;;;;;;;6.71;100.00;101398.06;5357062;27;21361;-63
2022/04/26 03:44:54;;;;;;;9.20;5.68;;;;;;;6.72;100.00;101400.66;5349774;27;20026;-63
2022/04/26 03:47:25;;;;;;;8.88;5.97;;;;;;;6.76;100.00;101406.66;5349020;27;20031;-62
2022/04/26 03:49:56;;;;;;;9.63;5.63;;;;;;;6.72;100.00;101405.94;5352698;27;20065;-63
2022/04/26 03:52:28;;;;;;;10.48;6.05;;;;;;;6.70;100.00;101409.63;5356470;27;20095;-63
2022/04/26 03:55:01;;;;;;;11.60;5.80;;;;;;;6.71;100.00;101403.38;5357977;27;20042;-63
2022/04/26 03:57:33;;;;;;;8.57;5.63;;;;;;;6.77;100.00;101411.00;5357774;27;20037;-63
2022/04/26 04:00:05;;;;;;;12.80;6.57;;;;;;;6.70;100.00;101412.28;5354000;27;20026;-63
2022/04/26 04:02:36;;;;;;;11.65;6.45;;;;;;;6.75;100.00;101408.44;5353555;27;20149;-62
2022/04/26 04:05:08;;;;;;;12.10;6.63;;;;;;;6.71;100.00;101409.53;5352741;27;20027;-63
2022/04/26 04:07:39;;;;;;;11.43;6.13;;;;;;;6.73;100.00;101407.69;5359029;27;20034;-63
2022/04/26 04:10:10;;;;;;;9.07;5.75;;;;;;;6.75;100.00;101419.06;5361038;27;20033;-63
2022/04/26 04:12:41;;;;;;;11.48;6.00;;;;;;;6.71;100.00;101422.78;5349591;27;20029;-63
2022/04/26 04:15:13;;;;;;;8.60;5.85;;;;;;;6.77;100.00;101419.84;5352890;27;20582;-63
2022/04/26 04:17:44;;;;;;;9.45;6.10;;;;;;;6.76;100.00;101427.88;5349146;27;20050;-62
2022/04/26 04:20:16;;;;;;;12.63;6.40;;;;;;;6.72;100.00;101423.66;5360686;27;20029;-63
2022/04/26 04:22:48;;;;;;;9.98;6.45;;;;;;;6.74;100.00;101430.59;5354995;27;20014;-62
2022/04/26 04:25:20;;;;;;;11.35;6.47;;;;;;;6.77;100.00;101435.75;5352499;27;20027;-63
2022/04/26 04:27:51;;;;;;;11.52;6.55;;;;;;;6.71;100.00;101438.69;5352853;27;20030;-63
2022/04/26 04:30:23;;;;;;;12.57;6.90;;;;;;;6.73;100.00;101434.19;5351252;27;20481;-63
2022/04/26 04:32:54;;;;;;;12.77;6.90;;;;;;;6.74;100.00;101435.03;5333068;27;20042;-62
2022/04/26 04:35:25;;;;;;;12.88;6.60;;;;;;;6.75;100.00;101442.94;5352064;27;20168;-63
2022/04/26 04:37:56;;;;;;;9.77;6.20;;;;;;;6.78;100.00;101452.50;5357389;27;20477;-63
2022/04/26 04:40:27;;;;;;;12.45;6.65;;;;;;;6.76;100.00;101444.63;5359837;27;20033;-63
2022/04/26 04:42:59;;;;;;;10.05;6.50;;;;;;;6.76;100.00;101451.75;5358008;27;20030;-63
2022/04/26 04:45:30;;;;;;;8.63;6.47;;;;;;;6.72;100.00;101448.38;5352760;27;20022;-63
2022/04/26 04:48:01;;;;;;;10.23;6.35;;;;;;;6.74;100.00;101454.47;5354375;27;20059;-63
2022/04/26 04:50:33;;;;;;;9.48;6.28;;;;;;;6.76;100.00;101460.53;5351141;27;20095;-63
2022/04/26 04:53:05;;;;;;;12.65;6.85;;;;;;;6.73;100.00;101466.03;5353230;27;20119;-63
2022/04/26 04:55:39;;;;;;;11.63;6.45;;;;;;;6.76;100.00;101465.00;5355807;27;20030;-63
2022/04/26 04:58:11;;;;;;;11.63;6.85;;;;;;;6.79;100.00;101471.00;5354408;27;20479;-63
2022/04/26 05:00:42;;;;;;;11.88;6.85;;;;;;;6.79;100.00;101478.13;5351307;27;20121;-63
2022/04/26 05:03:13;;;;;;;9.80;6.30;;;;;;;6.78;100.00;101471.94;5358585;27;20022;-63
2022/04/26 05:05:44;;;;;;;8.95;6.65;;;;;;;6.83;100.00;101480.53;5354069;27;20024;-63
2022/04/26 05:08:16;;;;;;;10.57;6.70;;;;;;;6.84;100.00;101476.06;5359711;27;20373;-63
2022/04/26 05:10:47;;;;;;;10.25;6.82;;;;;;;6.84;100.00;101481.38;5360592;27;20488;-63
2022/04/26 05:13:19;;;;;;;10.50;6.65;;;;;;;6.89;100.00;101492.63;5347449;27;20034;-62
2022/04/26 05:15:50;;;;;;;11.88;6.57;;;;;;;6.92;100.00;101494.25;5356408;27;20108;-63
2022/04/26 05:18:22;;;;;;;12.43;7.82;;;;;;;6.92;100.00;101495.09;5357888;27;20548;-63
2022/04/26 05:20:53;;;;;;;11.00;6.80;;;;;;;6.90;100.00;101498.78;5359870;27;20608;-63
2022/04/26 05:26:14;;;;;;;16.73;7.40;;;;;;;6.93;100.00;101495.97;5362593;27;20026;-63
2022/04/26 05:28:46;;;;;;;15.23;7.65;;;;;;;7.00;100.00;101500.91;5356363;27;20022;-63
2022/04/26 05:31:18;;;;;;;10.40;6.93;;;;;;;6.97;100.00;101500.19;5358788;27;20048;-63
2022/04/26 05:33:49;;;;;;;14.57;7.20;;;;;;;7.03;100.00;101505.19;5338147;27;20039;-63
2022/04/26 05:36:20;;;;;;;14.02;7.25;;;;;;;7.08;100.00;101513.78;5356157;27;20034;-63
2022/04/26 05:38:52;;;;;;;12.10;7.03;;;;;;;7.09;100.00;101506.66;5356258;27;20042;-63
2022/04/26 05:41:23;;;;;;;10.15;7.00;;;;;;;7.20;100.00;101510.47;5360287;27;20038;-63
2022/04/26 05:43:54;;;;;;;12.35;6.75;;;;;;;7.17;100.00;101507.13;5350683;27;20027;-63
2022/04/26 05:46:25;;;;;;;11.52;6.88;;;;;;;7.20;100.00;101506.97;5347563;27;20035;-63
2022/04/26 05:48:57;;;;;;;12.00;6.93;;;;;;;7.29;100.00;101510.91;5362599;27;20026;-63
2022/04/26 05:51:28;;;;;;;10.90;6.70;;;;;;;7.30;100.00;101508.19;5357178;27;21371;-63
2022/04/26 05:53:59;;;;;;;11.77;6.72;;;;;;;7.31;100.00;101515.22;5350013;27;20054;-63
2022/04/26 05:56:30;;;;;;;13.23;7.95;;;;;;;7.43;100.00;101516.38;5355365;27;20429;-63
2022/04/26 05:59:02;;;;;;;13.13;7.50;;;;;;;7.48;100.00;101522.31;5352696;27;20037;-63
2022/04/26 06:01:33;;;;;;;11.18;7.07;;;;;;;7.50;100.00;101523.09;5356548;27;20026;-63
2022/04/26 06:04:05;;;;;;;12.38;8.02;;;;;;;7.53;100.00;101525.56;5360015;27;20432;-63
2022/04/26 06:06:37;;;;;;;13.65;7.90;;;;;;;7.61;100.00;101523.38;5356137;27;20023;-62
2022/04/26 06:09:08;;;;;;;10.50;7.30;;;;;;;7.60;100.00;101534.09;5354776;27;20116;-63
2022/04/26 06:11:39;;;;;;;10.65;7.80;;;;;;;7.65;100.00;101532.91;5360631;27;20410;-62
2022/04/26 06:14:11;;;;;;;14.18;8.10;;;;;;;7.69;100.00;101536.25;5361388;27;20333;-62
2022/04/26 06:16:42;;;;;;;13.48;7.43;;;;;;;7.80;100.00;101531.19;5358677;27;20552;-63
2022/04/26 06:19:13;;;;;;;12.80;7.15;;;;;;;7.85;100.00;101537.13;5334306;27;20568;-62
2022/04/26 06:21:45;;;;;;;14.02;8.07;;;;;;;7.89;100.00;101540.50;5346527;27;20216;-63
2022/04/26 06:24:16;;;;;;;15.05;7.82;;;;;;;7.99;100.00;101540.84;5353521;27;20030;-63
2022/04/26 06:26:47;;;;;;;11.82;8.40;;;;;;;8.14;100.00;101547.97;5357089;27;20058;-62
2022/04/26 06:29:18;;;;;;;12.27;8.35;;;;;;;8.18;100.00;101540.69;5354054;27;21415;-63
2022/04/26 06:31:49;;;;;;;13.27;8.13;;;;;;;8.22;100.00;101545.75;5346611;27;20427;-62
2022/04/26 06:34:21;;;;;;;14.07;8.10;;;;;;;8.27;100.00;101552.63;5357894;27;20522;-63
2022/04/26 06:36:52;;;;;;;14.77;8.48;;;;;;;8.25;99.21;101552.72;5350066;27;20070;-63
2022/04/26 06:39:24;;;;;;;14.35;8.40;;;;;;;8.36;100.00;101554.75;5348720;27;20502;-63
2022/04/26 06:41:55;;;;;;;14.65;8.48;;;;;;;8.31;99.24;101556.84;5348540;27;20144;-63
2022/04/26 06:44:26;;;;;;;13.32;8.30;;;;;;;8.37;99.39;101565.31;5358758;27;20027;-63
2022/04/26 06:46:57;;;;;;;15.02;9.45;;;;;;;8.46;99.98;101563.09;5355835;27;20033;-63
2022/04/26 06:49:29;;;;;;;12.95;8.88;;;;;;;8.39;97.93;101557.25;5353157;27;20126;-63
2022/04/26 06:52:00;;;;;;;13.57;8.85;;;;;;;8.32;98.00;101564.72;5356294;27;20031;-63
2022/04/26 06:54:31;;;;;;;14.20;9.07;;;;;;;8.35;98.71;101564.53;5357880;27;20058;-63
2022/04/26 06:57:03;;;;;;;13.00;10.05;;;;;;;8.46;99.07;101573.75;5356039;27;20058;-63
2022/04/26 06:59:34;;;;;;;14.75;9.40;;;;;;;8.68;99.31;101571.59;5356178;27;20083;-63
2022/04/26 07:02:05;;;;;;;14.60;10.27;;;;;;;8.82;99.64;101570.81;5349928;27;20054;-63
2022/04/26 07:04:36;;;;;;;14.45;9.65;;;;;;;8.83;97.65;101584.03;5354220;27;20122;-63
2022/04/26 07:07:08;;;;;;;15.48;10.32;;;;;;;8.99;96.96;101572.50;5356107;27;20037;-63
2022/04/26 07:09:39;;;;;;;14.75;9.93;;;;;;;9.09;96.32;101565.69;5347823;27;20038;-63
2022/04/26 07:12:10;;;;;;;13.70;9.63;;;;;;;9.11;95.72;101579.78;5339741;27;20370;-64
2022/04/26 07:14:42;;;;;;;11.75;9.25;;;;;;;9.25;95.24;101578.13;5347513;27;20491;-63
2022/04/26 07:17:13;;;;;;;13.20;9.55;;;;;;;9.28;93.13;101573.47;5351024;27;20574;-64
2022/04/26 07:19:44;;;;;;;15.25;9.70;;;;;;;9.29;93.60;101571.66;5347786;27;20464;-63
2022/04/26 07:22:16;;;;;;;13.15;9.20;;;;;;;9.23;91.94;101579.03;5346759;27;20236;-63
2022/04/26 07:24:47;;;;;;;15.77;10.38;;;;;;;9.22;92.87;101577.34;5350803;27;20031;-63
2022/04/26 07:27:20;;;;;;;13.63;9.07;;;;;;;9.19;91.34;101580.19;5350340;27;20038;-63
2022/04/26 07:29:52;;;;;;;15.05;9.05;;;;;;;9.23;92.43;101581.72;5355382;27;20027;-63
2022/04/26 07:35:13;;;;;;;13.40;8.93;;;;;;;9.23;89.62;101595.03;5345368;27;20119;-63
2022/04/26 07:37:44;;;;;;;12.45;8.65;;;;;;;9.28;88.06;101596.56;5350960;27;20373;-63
2022/04/26 07:40:17;;;;;;;11.55;8.32;;;;;;;9.43;89.86;101590.31;5355039;27;20027;-63
2022/04/26 07:42:48;;;;;;;12.82;8.45;;;;;;;9.57;87.14;101601.00;5351799;27;20059;-63
2022/04/26 07:45:19;;;;;;;12.65;7.80;;;;;;;9.57;84.64;101594.84;5349901;27;20171;-63
2022/04/26 07:47:51;;;;;;;10.15;7.53;;;;;;;9.79;85.53;101602.38;5351667;27;20035;-63
2022/04/26 07:50:22;;;;;;;16.88;8.43;;;;;;;9.80;84.09;101601.44;5347379;27;20031;-63
2022/04/26 07:52:53;;;;;;;12.73;8.07;;;;;;;9.95;84.89;101611.16;5350104;27;20320;-63
2022/04/26 07:55:24;;;;;;;12.45;8.02;;;;;;;10.09;84.14;101617.44;5351823;27;20539;-63
2022/04/26 07:57:58;;;;;;;12.50;7.75;;;;;;;10.22;82.78;101623.72;5350729;27;20491;-63
2022/04/26 08:00:30;;;;;;;13.40;8.75;;;;;;;10.27;84.11;101624.28;5343362;27;20314;-63
2022/04/26 08:03:02;;;;;;;11.35;7.90;;;;;;;10.54;84.61;101618.19;5346733;27;20157;-63
2022/04/26 08:05:33;;;;;;;14.45;8.05;;;;;;;10.61;83.11;101624.84;5355299;27;20138;-63
2022/04/26 08:08:05;;;;;;;13.60;8.52;;;;;;;10.58;81.55;101627.69;5359918;27;20019;-63
2022/04/26 08:10:36;;;;;;;13.57;8.13;;;;;;;10.70;82.30;101637.59;5359925;27;20045;-63
2022/04/26 08:13:08;;;;;;;14.73;8.45;;;;;;;10.61;80.45;101646.19;5357604;27;20050;-63
2022/04/26 08:15:39;;;;;;;10.27;6.93;;;;;;;10.67;79.06;101640.47;5355626;27;20023;-63
2022/04/26 08:18:11;;;;;;;11.52;7.32;;;;;;;10.67;79.02;101648.47;5358827;27;20035;-63
2022/04/26 08:20:44;;;;;;;11.50;6.65;;;;;;;10.65;77.46;101654.88;5359799;27;20031;-63
2022/04/26 08:23:15;;;;;;;12.50;7.63;;;;;;;10.66;77.47;101660.13;5357831;27;20456;-63
2022/04/26 08:28:37;;;;;;;13.25;7.38;;;;;;;10.51;77.66;101661.09;5363107;27;20042;-63
2022/04/26 08:31:09;;;;;;;12.23;7.43;;;;;;;10.71;78.71;101649.97;5359574;27;20530;-63
2022/04/26 08:33:41;;;;;;;12.48;7.65;;;;;;;10.76;78.30;101655.88;5360889;27;20480;-63
2022/04/26 08:36:12;;;;;;;13.52;8.07;;;;;;;10.94;78.32;101664.50;5353122;27;20050;-63
2022/04/26 08:38:43;;;;;;;12.43;7.05;;;;;;;11.04;78.36;101666.59;5362694;27;20030;-63
2022/04/26 08:41:15;;;;;;;10.57;7.30;;;;;;;10.88;77.11;101666.72;5354341;27;20027;-63
2022/04/26 08:43:46;;;;;;;12.45;7.07;;;;;;;11.02;77.30;101666.69;5361141;27;20033;-63
2022/04/26 08:46:18;;;;;;;10.75;6.47;;;;;;;11.17;78.07;101670.16;5351599;27;20420;-63
2022/04/26 08:51:39;;;;;;;12.77;6.63;;;;;;;11.53;78.23;101661.50;5363279;27;20039;-63
2022/04/26 08:54:11;;;;;;;12.15;6.82;;;;;;;11.52;75.81;101661.59;5361152;27;20360;-63
2022/04/26 08:56:43;;;;;;;10.43;5.97;;;;;;;11.56;75.78;101666.66;5357003;27;20072;-63
2022/04/26 08:59:14;;;;;;;10.10;5.95;;;;;;;11.44;75.62;101675.50;5363500;27;20050;-63
2022/04/26 09:01:45;;;;;;;12.45;6.80;;;;;;;11.26;74.61;101671.38;5361925;27;20041;-63
2022/04/26 09:04:17;;;;;;;10.82;6.00;;;;;;;11.45;75.59;101669.19;5361980;27;20500;-63
2022/04/26 09:06:48;;;;;;;11.13;6.32;;;;;;;11.32;75.32;101679.00;5360435;27;20042;-63
2022/04/26 09:09:24;;;;;;;10.38;5.85;;;;;;;11.30;74.92;101670.22;5354085;27;20022;-63
2022/04/26 09:12:02;;;;;;;9.95;6.00;;;;;;;11.31;76.58;101678.13;5360457;27;20452;-63
2022/04/26 09:14:41;;;;;;;9.30;5.65;;;;;;;11.47;74.27;101677.97;5364231;27;20495;-63
2022/04/26 09:17:16;;;;;;;9.25;5.57;;;;;;;11.58;74.06;101680.78;5357442;27;20031;-64
2022/04/26 09:19:55;;;;;;;;;;;;;;;11.60;73.74;101677.13;5354881;27;20031;-63
2022/04/26 09:22:27;;;;;;;11.35;5.13;;;;;;;11.64;70.94;101675.97;5353691;27;20017;-63
2022/04/26 09:25:06;;;;;;;8.40;5.18;;;;;;;11.53;70.43;101674.03;5360057;27;20124;-63
2022/04/26 09:27:39;;;;;;;8.77;5.55;;;;;;;11.62;70.46;101675.22;5354846;27;20034;-63
2022/04/26 09:30:13;;;;;;;9.27;5.85;;;;;;;11.89;70.62;101677.81;5355235;27;20495;-63
2022/04/26 09:32:45;;;;;;;7.37;4.67;;;;;;;11.85;68.53;101684.34;5358621;27;20119;-63
2022/04/26 09:35:28;;;;;;;7.50;5.10;;;;;;;12.00;69.50;101687.81;5352178;27;20134;-63
2022/04/26 09:37:59;;;;;;;8.88;4.80;;;;;;;12.16;69.45;101688.47;5353971;27;20038;-63
2022/04/26 09:40:35;;;;;;;7.65;4.20;;;;;;;12.15;67.66;101684.06;5351188;27;20059;-63
2022/04/26 09:43:16;;;;;;;9.20;4.57;;;;;;;12.16;67.06;101699.19;5361767;27;20054;-63
2022/04/26 09:45:56;;;;;;;10.70;4.60;;;;;;;12.11;63.72;101699.47;5337301;27;20079;-63
2022/04/26 09:48:35;;;;;;;9.73;4.22;;;;;;;12.19;64.87;101712.31;5357035;27;20130;-63
2022/04/26 09:51:08;;;;;;;10.95;5.13;;;;;;;12.09;64.62;101708.59;5352179;27;20075;-63
2022/04/26 09:53:40;;;;;;;10.32;4.40;;;;;;;12.14;62.70;101709.13;5360934;27;20520;-63
2022/04/26 09:56:13;;;;;;;8.88;4.47;;;;;;;12.18;62.62;101720.44;5348644;27;20029;-63
2022/04/26 09:58:45;;;;;;;7.38;4.47;;;;;;;12.21;62.30;101715.75;5360072;27;20041;-63
2022/04/26 10:01:16;;;;;;;10.25;4.72;;;;;;;12.39;62.02;101710.94;5356882;27;20023;-63
2022/04/26 10:03:51;;;;;;;8.40;4.10;;;;;;;12.49;62.76;101703.97;5357425;27;20054;-63
2022/04/26 10:06:24;;;;;;;6.60;4.22;;;;;;;12.55;63.75;101710.72;5360798;27;20041;-63
2022/04/26 10:08:56;;;;;;;6.38;4.50;;;;;;;12.51;62.89;101717.25;5359041;27;20085;-63
2022/04/26 10:11:28;;;;;;;9.82;4.32;;;;;;;12.57;64.81;101718.63;5350778;27;20195;-63
2022/04/26 10:14:02;;;;;;;11.98;4.72;;;;;;;12.77;64.09;101728.78;5359232;27;20027;-63
2022/04/26 10:16:34;;;;;;;9.35;4.88;;;;;;;12.85;63.82;101725.56;5351696;27;20027;-63
2022/04/26 10:19:08;;;;;;;9.55;4.53;;;;;;;12.91;62.67;101725.09;5352978;27;20401;-63
2022/04/26 10:21:40;;;;;;;7.38;4.57;;;;;;;12.94;61.49;101740.94;5357763;27;20082;-63
2022/04/26 10:24:18;;;;;;;8.20;3.97;;;;;;;12.91;60.98;101734.00;5357611;27;20022;-63
2022/04/26 10:26:51;;;;;;;7.75;4.45;;;;;;;13.09;61.25;101734.47;5358936;27;20023;-64
2022/04/26 10:29:25;;;;;;;7.15;4.70;;;;;;;13.30;60.34;101742.78;5353852;27;20026;-63
2022/04/26 10:31:56;;;;;;;7.70;4.22;;;;;;;13.42;59.46;101735.66;5357027;27;20468;-63
2022/04/26 10:34:30;;;;;;;8.63;4.57;;;;;;;13.56;55.62;101744.50;5336349;27;20082;-63
2022/04/26 10:37:11;;;;;;;6.65;4.25;;;;;;;13.65;56.12;101749.19;5352154;27;20395;-63
2022/04/26 10:39:49;;;;;;;6.53;4.50;;;;;;;13.75;55.71;101749.34;5353957;27;20066;-63
2022/04/26 10:42:20;;;;;;;8.85;4.30;;;;;;;13.70;54.29;101744.34;5361085;27;20027;-65
2022/04/26 10:44:56;;;;;;;7.30;4.45;;;;;;;13.84;57.75;101751.34;5353691;27;20031;-64
2022/04/26 10:47:28;;;;;;;7.38;4.10;;;;;;;13.79;54.78;101756.19;5356799;27;20046;-63
2022/04/26 10:50:00;;;;;;;6.60;4.35;;;;;;;13.72;53.95;101747.75;5354409;27;20018;-63
2022/04/26 10:52:36;;;;;;;7.70;4.00;;;;;;;13.61;53.29;101753.06;5361358;27;20030;-64
2022/04/26 10:55:10;;;;;;;6.68;3.75;;;;;;;13.58;53.23;101761.34;5350898;27;20038;-63
2022/04/26 10:57:44;;;;;;;6.45;3.83;;;;;;;13.81;53.82;101759.63;5358376;27;20034;-65
2022/04/26 11:00:21;;;;;;;5.68;3.90;;;;;;;13.85;54.29;101751.22;5356748;27;20026;-65
2022/04/26 11:02:52;;;;;;;6.95;3.75;;;;;;;14.05;53.19;101744.31;5357703;27;20034;-65
2022/04/26 11:05:25;;;;;;;7.55;3.90;;;;;;;13.80;50.22;101761.44;5356905;27;20503;-64
2022/04/26 11:07:57;;;;;;;8.52;3.80;;;;;;;13.66;50.49;101754.44;5360135;27;20094;-64
2022/04/26 11:11:00;;;;;;;7.00;3.90;;;;;;;13.73;51.93;101744.13;5352406;27;20034;-64
2022/04/26 11:13:21;;;;;;;7.65;4.07;;;;;;;13.60;51.32;101757.59;5349752;27;20035;-64
2022/04/26 11:16:06;;;;;;;7.35;3.97;;;;;;;13.58;55.57;101745.28;5356449;27;20107;-63
2022/04/26 11:18:40;;;;;;;7.60;4.40;;;;;;;13.69;53.32;101740.81;5354654;27;20046;-64
2022/04/26 11:21:12;;;;;;;8.02;4.78;;;;;;;13.77;54.16;101760.81;5342590;27;20034;-64
2022/04/26 11:29:42;;;;;;;6.28;4.00;;;;;;;13.60;53.64;101746.00;5355121;27;20039;-64
2022/04/26 11:32:32;;;;;;;6.10;3.88;;;;;;;13.71;52.95;101741.53;5347059;27;20454;-64
2022/04/26 11:35:04;;;;;;;6.82;4.35;;;;;;;13.68;51.83;101747.13;5355578;27;20018;-64
2022/04/26 11:38:05;;;;;;;8.07;4.38;;;;;;;13.65;54.11;101741.13;5359324;27;20070;-63
2022/04/26 11:40:41;;;;;;;8.35;4.93;;;;;;;13.65;52.98;101744.69;5352467;27;20041;-64
2022/04/26 11:43:17;;;;;;;6.90;4.07;;;;;;;13.43;51.46;101739.22;5354925;27;20384;-64
2022/04/26 11:45:51;;;;;;;7.75;4.00;;;;;;;13.48;50.89;101747.75;5354214;27;20026;-64
2022/04/26 11:48:25;;;;;;;6.65;4.22;;;;;;;13.53;50.49;101751.81;5360692;27;20035;-63
2022/04/26 11:50:58;;;;;;;7.47;4.72;;;;;;;13.55;51.13;101762.44;5358641;27;20037;-63
2022/04/26 11:53:31;;;;;;;8.85;4.60;;;;;;;13.55;51.52;101759.75;5361481;27;20038;-63
2022/04/26 11:56:04;;;;;;;7.60;4.68;;;;;;;13.37;50.37;101759.28;5356828;27;20139;-64
2022/04/26 11:58:38;;;;;;;7.45;4.30;;;;;;;13.48;49.87;101758.47;5354930;27;20111;-64
2022/04/26 12:01:15;;;;;;;8.73;4.63;;;;;;;13.49;50.44;101761.06;5358022;27;20287;-63
2022/04/26 12:03:52;;;;;;;7.18;4.63;;;;;;;13.58;50.99;101762.22;5352682;27;20499;-64
2022/04/26 12:06:29;;;;;;;8.43;4.30;;;;;;;13.64;52.53;101761.75;5349812;27;20043;-63
2022/04/26 12:09:05;;;;;;;8.30;4.53;;;;;;;13.78;51.71;101768.75;5346314;27;20067;-64
2022/04/26 12:11:38;;;;;;;7.57;4.75;;;;;;;13.88;50.62;101780.50;5358038;27;20027;-64
2022/04/26 12:14:12;;;;;;;7.40;3.85;;;;;;;13.78;48.99;101776.78;5352343;27;20057;-63
2022/04/26 12:16:48;;;;;;;5.93;3.90;;;;;;;13.88;48.03;101764.41;5356662;27;20026;-63
2022/04/26 12:19:19;;;;;;;6.53;3.70;;;;;;;13.89;48.12;101759.91;5355827;27;21569;-63
2022/04/26 12:21:54;;;;;;;7.57;3.83;;;;;;;13.97;48.30;101778.94;5359897;27;20044;-63
2022/04/26 12:24:43;;;;;;;6.60;3.92;;;;;;;13.91;47.90;101764.16;5362014;27;20493;-63
2022/04/26 12:27:17;;;;;;;6.90;3.72;;;;;;;13.97;47.25;101759.31;5354031;27;20025;-63
2022/04/26 12:29:51;;;;;;;5.88;4.15;;;;;;;14.11;48.27;101759.97;5358527;27;20031;-63
2022/04/26 12:32:28;;;;;;;;;;;;;;;14.11;47.56;101777.88;5350213;27;20074;-64
2022/04/26 12:35:00;;;;;;;6.45;3.90;;;;;;;14.23;46.55;101765.34;5351706;27;20419;-63
2022/04/26 12:37:33;;;;;;;7.30;3.70;;;;;;;14.21;44.95;101768.16;5355474;27;20033;-63
2022/04/26 12:40:07;;;;;;;6.40;3.88;;;;;;;14.34;46.52;101769.88;5362108;27;20114;-63
2022/04/26 12:42:39;;;;;;;7.00;3.65;;;;;;;14.46;45.55;101771.63;5354792;27;20065;-63
2022/04/26 12:45:21;;;;;;;7.70;4.25;;;;;;;14.48;45.68;101772.38;5352674;27;20259;-63
2022/04/26 12:51:14;;;;;;;6.35;4.30;;;;;;;14.59;46.04;101758.97;5351290;27;20035;-63
2022/04/26 12:53:46;;;;;;;6.70;3.95;;;;;;;14.64;45.32;101766.66;5356148;27;20037;-63
2022/04/26 12:56:19;;;;;;;5.85;4.03;;;;;;;14.69;47.86;101756.44;5363700;27;20019;-63
2022/04/26 12:58:50;;;;;;;6.93;4.30;;;;;;;14.74;46.80;101762.28;5358762;27;20105;-63
2022/04/26 13:01:22;;;;;;;5.35;4.07;;;;;;;14.81;47.84;101770.72;5361992;27;20117;-63
2022/04/26 13:03:53;;;;;;;10.20;4.88;;;;;;;14.73;49.20;101770.44;5359143;27;20035;-63
2022/04/26 13:06:25;;;;;;;7.03;4.10;;;;;;;14.63;47.84;101757.78;5357388;27;20030;-63
2022/04/26 13:08:56;;;;;;;7.78;4.60;;;;;;;14.63;48.60;101764.94;5346760;27;20034;-63
2022/04/26 13:11:27;;;;;;;6.72;4.30;;;;;;;14.48;49.69;101769.69;5360560;27;20167;-63
2022/04/26 13:13:59;;;;;;;6.45;3.90;;;;;;;14.35;48.37;101760.88;5360825;27;20074;-63
2022/04/26 13:16:30;;;;;;;9.18;4.28;;;;;;;14.36;48.64;101766.09;5355585;27;20657;-63
2022/04/26 13:19:01;;;;;;;9.45;4.55;;;;;;;14.25;49.67;101761.59;5349387;27;20405;-63
2022/04/26 13:21:32;;;;;;;6.88;4.10;;;;;;;14.51;50.93;101758.69;5359052;27;20030;-63
2022/04/26 13:24:04;;;;;;;6.97;4.47;;;;;;;14.58;49.91;101761.78;5358299;27;20034;-63
2022/04/26 13:26:36;;;;;;;6.57;4.00;;;;;;;14.54;49.67;101763.81;5363616;27;20023;-63
2022/04/26 13:29:07;;;;;;;6.57;4.28;;;;;;;14.67;50.08;101769.13;5361732;27;20042;-63
2022/04/26 13:31:38;;;;;;;6.15;4.18;;;;;;;14.58;48.97;101757.25;5358567;27;20018;-63
2022/04/26 13:34:10;;;;;;;9.68;4.63;;;;;;;14.82;49.66;101764.34;5358963;27;20033;-64
2022/04/26 13:36:42;;;;;;;7.90;4.40;;;;;;;14.84;48.71;101765.06;5358046;27;20083;-63
2022/04/26 13:39:13;;;;;;;7.22;4.50;;;;;;;15.05;49.42;101762.50;5356126;27;20102;-64
2022/04/26 13:41:45;;;;;;;6.75;3.60;;;;;;;14.96;48.65;101761.41;5358273;27;20560;-63
2022/04/26 13:44:19;;;;;;;8.07;3.50;;;;;;;15.00;48.89;101779.00;5357564;27;20856;-63
2022/04/26 13:46:50;;;;;;;7.30;4.35;;;;;;;14.78;48.80;101769.09;5359333;27;20023;-63
2022/04/26 13:49:22;;;;;;;8.30;3.95;;;;;;;14.75;48.25;101773.88;5349050;27;20033;-63
2022/04/26 13:51:53;;;;;;;7.28;4.15;;;;;;;14.67;48.78;101769.97;5352295;27;20113;-64
2022/04/26 13:54:27;;;;;;;6.68;4.20;;;;;;;14.54;48.27;101779.09;5351821;27;20034;-63
2022/04/26 13:56:59;;;;;;;7.30;4.10;;;;;;;14.61;49.92;101775.84;5354092;27;20035;-63
2022/04/26 13:59:30;;;;;;;6.32;3.97;;;;;;;14.70;48.18;101771.56;5349518;27;20022;-63
2022/04/26 14:02:02;;;;;;;8.15;4.28;;;;;;;14.56;47.87;101771.78;5351719;27;20122;-63
2022/04/26 14:04:34;;;;;;;7.10;4.18;;;;;;;14.66;47.21;101779.00;5350238;27;20041;-63
2022/04/26 14:07:06;;;;;;;7.97;3.97;;;;;;;14.66;48.49;101781.69;5352386;27;20022;-63
2022/04/26 14:09:37;;;;;;;7.07;3.42;;;;;;;14.76;48.18;101773.75;5351046;27;20030;-63
2022/04/26 14:12:09;;;;;;;4.68;3.10;;;;;;;14.73;46.82;101779.38;5345679;27;20109;-63
2022/04/26 14:23:10;;;;;;;6.10;2.95;;;;;;;14.76;45.98;101776.44;5348151;27;20058;-63
2022/04/26 14:25:41;;;;;;;5.55;2.88;;;;;;;14.46;44.29;101777.00;5355860;27;20101;-63
2022/04/26 14:28:13;;;;;;;6.88;3.22;;;;;;;14.56;45.56;101785.19;5353063;27;20425;-63
2022/04/26 14:30:44;;;;;;;6.28;3.47;;;;;;;14.57;44.87;101786.91;5349606;27;20406;-63
2022/04/26 14:33:15;;;;;;;5.65;3.13;;;;;;;14.64;45.76;101778.25;5351748;27;20027;-63
2022/04/26 14:35:47;;;;;;;7.72;3.22;;;;;;;14.55;44.51;101780.78;5348571;27;20502;-63
2022/04/26 14:38:18;;;;;;;5.50;3.33;;;;;;;14.72;45.17;101779.50;5344281;27;20122;-63
2022/04/26 14:40:50;;;;;;;7.93;3.33;;;;;;;14.58;45.00;101783.28;5352053;27;20023;-63
2022/04/26 14:43:21;;;;;;;7.15;3.25;;;;;;;14.59;46.06;101791.19;5347350;27;20033;-63
2022/04/26 14:45:55;;;;;;;5.53;3.42;;;;;;;14.71;45.34;101786.72;5353598;27;20448;-63
2022/04/26 14:48:26;;;;;;;7.13;3.60;;;;;;;14.65;45.85;101789.84;5347572;27;20027;-63
2022/04/26 14:50:58;;;;;;;6.95;3.78;;;;;;;14.68;45.10;101795.84;5357771;27;20520;-63
2022/04/26 14:53:29;;;;;;;6.20;4.07;;;;;;;14.65;45.11;101790.72;5357989;27;20103;-63
2022/04/26 14:56:00;;;;;;;6.35;3.35;;;;;;;14.63;45.82;101792.69;5361093;27;20023;-63
2022/04/26 14:58:34;;;;;;;4.65;3.25;;;;;;;14.61;46.60;101793.75;5355256;27;20031;-63
2022/04/26 15:01:05;;;;;;;6.90;3.38;;;;;;;14.55;46.05;101794.22;5361042;27;20109;-63
2022/04/26 15:03:36;;;;;;;6.43;3.30;;;;;;;14.60;45.07;101792.91;5354601;27;20035;-63
2022/04/26 15:06:08;;;;;;;4.90;3.30;;;;;;;14.48;45.70;101786.63;5361369;27;20022;-63
2022/04/26 15:11:29;;;;;;;4.95;3.50;;;;;;;14.58;45.57;101792.19;5359814;27;20018;-63
2022/04/26 15:16:51;;;;;;;5.80;3.10;;;;;;;14.53;44.44;101791.63;5349892;27;20066;-63
2022/04/26 15:19:22;;;;;;;5.70;3.15;;;;;;;14.55;46.76;101781.63;5358674;27;20603;-64
2022/04/26 15:21:53;;;;;;;6.30;3.75;;;;;;;14.52;45.82;101779.22;5354059;27;20468;-63
2022/04/26 15:24:24;;;;;;;4.85;3.22;;;;;;;14.61;45.69;101786.59;5350262;27;20039;-64
2022/04/26 15:26:56;;;;;;;4.60;2.97;;;;;;;14.68;45.84;101789.63;5358316;27;20031;-63
2022/04/26 15:29:27;;;;;;;6.07;3.20;;;;;;;14.47;44.10;101794.81;5353178;27;20058;-63
2022/04/26 15:31:59;;;;;;;7.43;2.63;;;;;;;14.20;43.06;101785.22;5355980;27;20035;-63
2022/04/26 15:34:30;;;;;;;5.10;2.72;;;;;;;14.10;44.42;101785.09;5355534;27;20033;-63
2022/04/26 15:37:02;;;;;;;7.13;2.95;;;;;;;14.14;43.35;101784.88;5349180;27;20083;-63
2022/04/26 15:39:33;;;;;;;5.88;2.67;;;;;;;14.19;43.92;101788.03;5353392;27;20037;-63
2022/04/26 15:42:05;;;;;;;5.18;2.60;;;;;;;13.96;42.65;101792.47;5349361;27;20019;-63
2022/04/26 15:44:36;;;;;;;4.72;2.70;;;;;;;13.93;42.99;101804.28;5348514;27;20038;-63
2022/04/26 15:47:07;;;;;;;5.38;2.58;;;;;;;13.82;42.29;101799.72;5351483;27;20142;-63
2022/04/26 15:49:39;;;;;;;4.15;2.30;;;;;;;13.83;42.44;101804.13;5359905;27;20022;-63
2022/04/26 15:52:10;;;;;;;6.60;2.70;;;;;;;13.92;43.86;101792.72;5349136;27;20026;-64
2022/04/26 15:54:43;;;;;;;5.57;2.78;;;;;;;13.80;42.12;101798.16;5352669;27;20531;-64